Time;durP1;ratioP1;P1;durP2;ratioP2;P2;SDS_P1;SDS_P2;PMS_P1;PMS_P2;Temp;Humidity;BMP_temperature;BMP_pressure;BME280_temperature;BME280_humidity;BME280_pressure;Samples;Min_cycle;Max_cycle;Signal;HPM_P1;HPM_P2
2023/10/21 00:00:57;;;;;;;11.23;2.58;;;;;;;-143.29;100.00;62188.47;4994943;28;20038;-91
2023/10/21 00:03:22;;;;;;;11.52;1.92;;;;;;;-143.29;100.00;62188.47;4994397;28;20037;-91
2023/10/21 00:05:48;;;;;;;10.20;2.28;;;;;;;-143.29;100.00;62188.47;4994754;28;20022;-91
2023/10/21 00:08:13;;;;;;;13.10;2.38;;;;;;;-143.29;100.00;62188.47;4993605;28;20031;-91
2023/10/21 00:10:39;;;;;;;15.95;2.60;;;;;;;-143.29;100.00;62188.47;4976937;28;20121;-92
2023/10/21 00:13:04;;;;;;;16.48;2.55;;;;;;;-143.29;100.00;62188.47;4992015;28;20473;-92
2023/10/21 00:15:30;;;;;;;11.30;2.60;;;;;;;-143.29;100.00;62188.47;4994472;28;20120;-92
2023/10/21 00:17:55;;;;;;;16.85;2.40;;;;;;;-143.29;100.00;62188.47;4976899;28;20027;-91
2023/10/21 00:20:20;;;;;;;16.05;2.53;;;;;;;-143.29;100.00;62188.47;4972336;28;20022;-91
2023/10/21 00:22:46;;;;;;;12.10;2.60;;;;;;;-143.29;100.00;62188.47;4994605;28;20035;-91
2023/10/21 00:25:11;;;;;;;14.68;3.22;;;;;;;-143.29;100.00;62188.47;4994214;28;20018;-92
2023/10/21 00:27:36;;;;;;;10.48;2.80;;;;;;;-143.29;100.00;62188.47;4991741;28;20026;-92
2023/10/21 00:30:02;;;;;;;15.35;3.33;;;;;;;-143.29;100.00;62188.47;4994216;28;20481;-91
2023/10/21 00:32:27;;;;;;;9.88;2.30;;;;;;;-143.29;100.00;62188.47;4994129;28;20027;-92
2023/10/21 00:34:53;;;;;;;11.52;2.72;;;;;;;-143.29;100.00;62188.47;4993902;28;20034;-92
2023/10/21 00:37:18;;;;;;;8.13;1.80;;;;;;;-143.29;100.00;62188.47;4991790;28;20076;-91
2023/10/21 00:39:44;;;;;;;9.80;2.30;;;;;;;-143.29;100.00;62188.47;4976162;28;20029;-92
2023/10/21 00:42:10;;;;;;;12.75;2.75;;;;;;;-143.29;100.00;62188.47;4993042;28;20022;-92
2023/10/21 00:44:35;;;;;;;8.82;2.05;;;;;;;-143.29;100.00;62188.47;4993784;28;20030;-91
2023/10/21 00:47:01;;;;;;;8.20;1.85;;;;;;;-143.29;100.00;62188.47;4993032;28;20075;-91
2023/10/21 00:49:31;;;;;;;14.40;2.67;;;;;;;-143.29;100.00;62188.47;4975307;28;20030;-91
2023/10/21 00:51:57;;;;;;;13.80;2.55;;;;;;;-143.29;100.00;62188.47;4976029;28;20161;-92
2023/10/21 00:54:25;;;;;;;13.25;2.50;;;;;;;-143.29;100.00;62188.47;4993704;28;20018;-91
2023/10/21 00:56:51;;;;;;;10.95;1.67;;;;;;;-143.29;100.00;62188.47;4991268;28;20034;-92
2023/10/21 00:59:17;;;;;;;7.28;2.17;;;;;;;-143.29;100.00;62188.47;4975713;28;20022;-92
2023/10/21 01:01:43;;;;;;;7.03;2.60;;;;;;;-143.29;100.00;62188.47;4976123;28;20038;-91
2023/10/21 01:04:10;;;;;;;13.80;2.25;;;;;;;-143.29;100.00;62188.47;4993119;28;20026;-91
2023/10/21 01:06:36;;;;;;;14.48;3.20;;;;;;;-143.29;100.00;62188.47;4991490;28;20045;-92
2023/10/21 01:09:01;;;;;;;8.48;2.05;;;;;;;-143.29;100.00;62188.47;4993394;28;20092;-91
2023/10/21 01:11:27;;;;;;;5.10;1.65;;;;;;;-143.29;100.00;62188.47;4993539;28;20148;-91
2023/10/21 01:13:54;;;;;;;10.07;2.40;;;;;;;-143.29;100.00;62188.47;4993317;28;20036;-91
2023/10/21 01:16:19;;;;;;;6.55;1.80;;;;;;;-143.29;100.00;62188.47;4993154;28;20058;-91
2023/10/21 01:18:45;;;;;;;12.48;2.20;;;;;;;-143.29;100.00;62188.47;4990637;28;20035;-91
2023/10/21 01:21:10;;;;;;;4.93;1.63;;;;;;;-143.29;100.00;62188.47;4993228;28;20023;-92
2023/10/21 01:23:36;;;;;;;9.90;1.90;;;;;;;-143.29;100.00;62188.47;4992872;28;20084;-91
2023/10/21 01:26:04;;;;;;;3.85;1.20;;;;;;;-143.29;100.00;62188.47;4993162;28;20130;-92
2023/10/21 01:28:30;;;;;;;10.95;2.10;;;;;;;-143.29;100.00;62188.47;4990801;28;20523;-92
2023/10/21 01:30:55;;;;;;;25.02;4.13;;;;;;;-143.29;100.00;62188.47;4993075;28;20057;-91
2023/10/21 01:33:21;;;;;;;10.35;2.38;;;;;;;-143.29;100.00;62188.47;4992658;28;20034;-91
2023/10/21 01:35:46;;;;;;;11.90;2.78;;;;;;;-143.29;100.00;62188.47;4975430;28;20052;-91
2023/10/21 01:38:12;;;;;;;16.63;2.22;;;;;;;-143.29;100.00;62188.47;4973908;28;20472;-92
2023/10/21 01:40:37;;;;;;;9.60;2.50;;;;;;;-143.29;100.00;62188.47;4992906;28;20054;-91
2023/10/21 01:43:03;;;;;;;16.17;2.33;;;;;;;-143.29;100.00;62188.47;4992721;28;20085;-91
2023/10/21 01:45:28;;;;;;;13.80;2.47;;;;;;;-143.29;100.00;62188.47;4990448;28;20816;-92
2023/10/21 01:47:53;;;;;;;10.32;2.28;;;;;;;-143.29;100.00;62188.47;4992724;28;20030;-92
2023/10/21 01:50:19;;;;;;;7.55;1.80;;;;;;;-143.29;100.00;62188.47;4974826;28;20400;-91
2023/10/21 01:52:44;;;;;;;8.52;1.58;;;;;;;-143.29;100.00;62188.47;4992540;28;20480;-91
2023/10/21 01:55:10;;;;;;;7.60;2.35;;;;;;;-143.29;100.00;62188.47;4990267;28;20019;-92
2023/10/21 01:57:36;;;;;;;8.02;1.50;;;;;;;-143.29;100.00;62188.47;4992426;28;20157;-91
2023/10/21 02:00:10;;;;;;;6.22;1.90;;;;;;;-143.29;100.00;62188.47;4991163;28;20034;-92
2023/10/21 02:02:38;;;;;;;7.78;1.95;;;;;;;-143.29;100.00;62188.47;4991812;28;20030;-91
2023/10/21 02:05:06;;;;;;;11.85;2.10;;;;;;;-143.29;100.00;62188.47;4990272;28;20033;-91
2023/10/21 02:07:32;;;;;;;7.13;1.25;;;;;;;-143.29;100.00;62188.47;4991979;28;20027;-91
2023/10/21 02:09:57;;;;;;;10.77;2.33;;;;;;;-143.29;100.00;62188.47;4992542;28;20029;-91
2023/10/21 02:12:23;;;;;;;6.22;1.65;;;;;;;-143.29;100.00;62188.47;4989907;28;20113;-92
2023/10/21 02:14:48;;;;;;;8.75;1.92;;;;;;;-143.29;100.00;62188.47;4991686;28;20023;-92
2023/10/21 02:17:13;;;;;;;7.43;1.60;;;;;;;-143.29;100.00;62188.47;4992175;28;20114;-92
2023/10/21 02:19:39;;;;;;;7.63;1.42;;;;;;;-143.29;100.00;62188.47;4992611;28;20022;-91
2023/10/21 02:22:04;;;;;;;6.80;1.77;;;;;;;-143.29;100.00;62188.47;4992309;28;20085;-91
2023/10/21 02:24:34;;;;;;;6.15;1.60;;;;;;;-143.29;100.00;62188.47;4992428;28;20045;-91
2023/10/21 02:26:59;;;;;;;6.95;1.50;;;;;;;-143.29;100.00;62188.47;4991066;28;20027;-91
2023/10/21 02:29:24;;;;;;;10.50;1.52;;;;;;;-143.29;100.00;62188.47;4992271;28;20041;-92
2023/10/21 02:31:49;;;;;;;23.92;1.95;;;;;;;-143.29;100.00;62188.47;4992020;28;20109;-91
2023/10/21 02:34:15;;;;;;;5.28;1.40;;;;;;;-143.29;100.00;62188.47;4991967;28;20033;-92
2023/10/21 02:36:40;;;;;;;5.25;1.55;;;;;;;-143.29;100.00;62188.47;4991485;28;20259;-92
2023/10/21 02:39:07;;;;;;;3.45;1.08;;;;;;;-143.29;100.00;62188.47;4992037;28;20080;-92
2023/10/21 02:41:33;;;;;;;7.07;1.33;;;;;;;-143.29;100.00;62188.47;4992283;28;20105;-92
2023/10/21 02:43:58;;;;;;;8.95;1.95;;;;;;;-143.29;100.00;62188.47;4974538;28;20113;-92
2023/10/21 02:46:23;;;;;;;4.13;0.77;;;;;;;-143.29;100.00;62188.47;4991159;28;20076;-92
2023/10/21 02:48:48;;;;;;;6.65;1.83;;;;;;;-143.29;100.00;62188.47;4974446;28;20026;-91
2023/10/21 02:51:17;;;;;;;7.50;1.23;;;;;;;-143.29;100.00;62188.47;4991948;28;20034;-91
2023/10/21 02:53:43;;;;;;;8.27;1.63;;;;;;;-143.29;100.00;62188.47;4992051;28;20077;-92
2023/10/21 02:56:10;;;;;;;5.22;1.20;;;;;;;-143.29;100.00;62188.47;4989645;28;20033;-92
2023/10/21 02:58:36;;;;;;;10.50;2.22;;;;;;;-143.29;100.00;62188.47;4991494;28;20022;-91
2023/10/21 03:01:19;;;;;;;5.18;1.30;;;;;;;-143.29;100.00;62188.47;4974659;28;20471;-91
2023/10/21 03:03:46;;;;;;;4.82;1.40;;;;;;;-143.29;100.00;62188.47;4991669;28;20022;-91
2023/10/21 03:06:13;;;;;;;8.30;1.35;;;;;;;-143.29;100.00;62188.47;4972996;28;20113;-92
2023/10/21 03:08:39;;;;;;;7.32;1.33;;;;;;;-143.29;100.00;62188.47;4974443;28;20030;-91
2023/10/21 03:11:06;;;;;;;7.05;1.40;;;;;;;-143.29;100.00;62188.47;4992050;28;20039;-90
2023/10/21 03:13:37;;;;;;;7.75;1.73;;;;;;;-143.29;100.00;62188.47;4995346;28;20022;-91
2023/10/21 03:16:06;;;;;;;6.85;1.75;;;;;;;-143.29;100.00;62188.47;4993319;28;20030;-91
2023/10/21 03:18:32;;;;;;;6.00;1.67;;;;;;;-143.29;100.00;62188.47;4977659;28;20026;-91
2023/10/21 03:20:58;;;;;;;6.95;1.88;;;;;;;-143.29;100.00;62188.47;4995489;28;20076;-91
2023/10/21 03:23:23;;;;;;;3.38;1.33;;;;;;;-143.29;100.00;62188.47;4995224;28;20030;-91
2023/10/21 03:25:56;;;;;;;7.50;1.60;;;;;;;-143.29;100.00;62188.47;4994601;28;20039;-92
2023/10/21 03:28:23;;;;;;;5.50;1.30;;;;;;;-143.29;100.00;62188.47;4995107;28;20165;-92
2023/10/21 03:30:49;;;;;;;7.53;1.70;;;;;;;-143.29;100.00;62188.47;4995082;28;20058;-92
2023/10/21 03:33:15;;;;;;;7.25;2.05;;;;;;;-143.29;100.00;62188.47;4994896;28;20550;-92
2023/10/21 03:35:40;;;;;;;5.45;1.40;;;;;;;-143.29;100.00;62188.47;4993474;28;20145;-91
2023/10/21 03:38:06;;;;;;;3.92;1.45;;;;;;;-143.29;100.00;62188.47;4977394;28;20125;-92
2023/10/21 03:40:31;;;;;;;6.50;1.27;;;;;;;-143.29;100.00;62188.47;4995178;28;20031;-91
2023/10/21 03:42:56;;;;;;;5.30;1.25;;;;;;;-143.29;100.00;62188.47;4977436;28;20252;-92
2023/10/21 03:45:22;;;;;;;11.23;1.40;;;;;;;-143.29;100.00;62188.47;4976399;28;20501;-92
2023/10/21 03:47:48;;;;;;;7.07;1.30;;;;;;;-143.29;100.00;62188.47;4994887;28;20451;-92
2023/10/21 03:50:13;;;;;;;4.40;1.38;;;;;;;-143.29;100.00;62188.47;4995052;28;20516;-91
2023/10/21 03:52:39;;;;;;;7.22;1.90;;;;;;;-143.29;100.00;62188.47;4994747;28;20026;-92
2023/10/21 03:55:05;;;;;;;12.57;1.85;;;;;;;-143.29;100.00;62188.47;4976792;28;20026;-92
2023/10/21 03:57:31;;;;;;;10.48;2.22;;;;;;;-143.29;100.00;62188.47;4994581;28;20038;-92
2023/10/21 03:59:59;;;;;;;6.13;1.33;;;;;;;-143.29;100.00;62188.47;4995061;28;20023;-91
2023/10/21 04:02:25;;;;;;;6.88;1.35;;;;;;;-143.29;100.00;62188.47;4977038;28;20370;-92
2023/10/21 04:04:50;;;;;;;5.78;1.10;;;;;;;-143.29;100.00;62188.47;4994652;28;20113;-92
2023/10/21 04:07:15;;;;;;;4.53;1.30;;;;;;;-143.29;100.00;62188.47;4993707;28;20385;-92
2023/10/21 04:09:41;;;;;;;8.38;1.00;;;;;;;-143.29;100.00;62188.47;4994308;28;20085;-91
2023/10/21 04:12:06;;;;;;;5.05;1.45;;;;;;;-143.29;100.00;62188.47;4995020;28;20062;-92
2023/10/21 04:14:32;;;;;;;9.10;1.77;;;;;;;-143.29;100.00;62188.47;4994185;28;20045;-92
2023/10/21 04:16:57;;;;;;;2.75;0.90;;;;;;;-143.29;100.00;62188.47;4992032;28;20037;-92
2023/10/21 04:19:23;;;;;;;4.20;1.38;;;;;;;-143.29;100.00;62188.47;4994443;28;20062;-91
2023/10/21 04:21:49;;;;;;;3.78;1.10;;;;;;;-143.29;100.00;62188.47;4994462;28;20076;-91
2023/10/21 04:24:15;;;;;;;5.53;1.42;;;;;;;-143.29;100.00;62188.47;4994254;28;20489;-92
2023/10/21 04:26:40;;;;;;;9.68;1.92;;;;;;;-143.29;100.00;62188.47;4975829;28;20038;-91
2023/10/21 04:29:06;;;;;;;5.53;1.50;;;;;;;-143.29;100.00;62188.47;4994043;28;20405;-91
2023/10/21 04:31:38;;;;;;;8.95;1.77;;;;;;;-143.29;100.00;62188.47;4994268;28;20034;-91
2023/10/21 04:34:04;;;;;;;8.40;3.22;;;;;;;-143.29;100.00;62188.47;4974755;28;20027;-92
2023/10/21 04:36:29;;;;;;;5.97;1.23;;;;;;;-143.29;100.00;62188.47;4983402;28;20034;-92
2023/10/21 04:38:55;;;;;;;6.38;1.70;;;;;;;-143.29;100.00;62188.47;4993495;28;20109;-92
2023/10/21 04:41:20;;;;;;;7.40;1.73;;;;;;;-143.29;100.00;62188.47;4976721;28;20380;-91
2023/10/21 04:43:46;;;;;;;6.57;1.40;;;;;;;-143.29;100.00;62188.47;4993971;28;20040;-91
2023/10/21 04:46:12;;;;;;;6.25;2.45;;;;;;;-143.29;100.00;62188.47;4975345;28;20060;-92
2023/10/21 04:48:37;;;;;;;4.90;1.40;;;;;;;-143.29;100.00;62188.47;4993660;28;20108;-91
2023/10/21 04:51:03;;;;;;;4.25;1.40;;;;;;;-143.29;100.00;62188.47;4993708;28;20038;-92
2023/10/21 04:53:28;;;;;;;7.68;1.83;;;;;;;-143.29;100.00;62188.47;4993568;28;20026;-91
2023/10/21 04:55:53;;;;;;;7.75;1.38;;;;;;;-143.29;100.00;62188.47;4975691;28;20361;-91
2023/10/21 04:58:19;;;;;;;5.05;1.77;;;;;;;-143.29;100.00;62188.47;4993243;28;20129;-91
2023/10/21 05:00:44;;;;;;;6.47;1.80;;;;;;;-143.29;100.00;62188.47;4993843;28;20065;-92
2023/10/21 05:03:09;;;;;;;6.95;1.70;;;;;;;-143.29;100.00;62188.47;4975979;28;20022;-92
2023/10/21 05:05:35;;;;;;;7.05;1.60;;;;;;;-143.29;100.00;62188.47;4991265;28;20081;-92
2023/10/21 05:08:01;;;;;;;8.43;1.95;;;;;;;-143.29;100.00;62188.47;4993387;28;20034;-92
2023/10/21 05:10:27;;;;;;;5.25;1.50;;;;;;;-143.29;100.00;62188.47;4976089;28;20129;-91
2023/10/21 05:12:52;;;;;;;8.77;2.08;;;;;;;-143.29;100.00;62188.47;4993190;28;20106;-92
2023/10/21 05:15:18;;;;;;;8.48;2.42;;;;;;;-143.29;100.00;62188.47;4993621;28;20476;-91
2023/10/21 05:17:43;;;;;;;4.72;1.70;;;;;;;-143.29;100.00;62188.47;4992250;28;20061;-92
2023/10/21 05:20:09;;;;;;;9.20;1.30;;;;;;;-143.29;100.00;62188.47;4993113;28;20473;-92
2023/10/21 05:22:34;;;;;;;6.13;1.40;;;;;;;-143.29;100.00;62188.47;4992970;28;20421;-92
2023/10/21 05:24:59;;;;;;;4.82;1.42;;;;;;;-143.29;100.00;62188.47;4975585;28;20027;-91
2023/10/21 05:27:24;;;;;;;4.32;1.00;;;;;;;-143.29;100.00;62188.47;4991473;28;20095;-91
2023/10/21 05:29:50;;;;;;;5.88;1.30;;;;;;;-143.29;100.00;62188.47;4992951;28;20026;-91
2023/10/21 05:32:15;;;;;;;6.78;2.47;;;;;;;-143.29;100.00;62188.47;4975395;28;20105;-91
2023/10/21 05:34:42;;;;;;;5.40;1.23;;;;;;;-143.29;100.00;62188.47;4992548;28;20054;-91
2023/10/21 05:37:07;;;;;;;6.25;1.65;;;;;;;-143.29;100.00;62188.47;4990820;28;20385;-92
2023/10/21 05:39:32;;;;;;;9.27;1.55;;;;;;;-143.29;100.00;62188.47;4992895;28;20109;-91
2023/10/21 05:41:58;;;;;;;7.40;1.40;;;;;;;-143.29;100.00;62188.47;4992969;28;20058;-91
2023/10/21 05:44:23;;;;;;;3.90;1.10;;;;;;;-143.29;100.00;62188.47;4975561;28;20027;-91
2023/10/21 05:46:49;;;;;;;6.05;1.45;;;;;;;-143.29;100.00;62188.47;4990507;28;20026;-91
2023/10/21 05:49:14;;;;;;;3.65;0.90;;;;;;;-143.29;100.00;62188.47;4992618;28;20061;-91
2023/10/21 05:51:39;;;;;;;7.15;2.15;;;;;;;-143.29;100.00;62188.47;4975143;28;20061;-92
2023/10/21 05:54:05;;;;;;;7.05;1.33;;;;;;;-143.29;100.00;62188.47;4992696;28;20166;-91
2023/10/21 05:56:30;;;;;;;5.82;1.63;;;;;;;-143.29;100.00;62188.47;4990168;28;20105;-91
2023/10/21 05:58:56;;;;;;;6.15;1.17;;;;;;;-143.29;100.00;62188.47;4992777;28;20027;-91
2023/10/21 06:01:21;;;;;;;4.55;1.23;;;;;;;-143.29;100.00;62188.47;4992493;28;20385;-91
2023/10/21 06:03:47;;;;;;;4.82;1.35;;;;;;;-143.29;100.00;62188.47;4992731;28;20033;-91
2023/10/21 06:06:12;;;;;;;6.85;2.33;;;;;;;-143.29;100.00;62188.47;4991778;28;20062;-91
2023/10/21 06:08:38;;;;;;;7.80;1.20;;;;;;;-143.29;100.00;62188.47;4992441;28;20046;-90
2023/10/21 06:11:04;;;;;;;6.32;1.60;;;;;;;-143.29;100.00;62188.47;4975278;28;20385;-92
2023/10/21 06:13:29;;;;;;;6.72;1.40;;;;;;;-143.29;100.00;62188.47;4992062;28;20461;-91
2023/10/21 06:15:54;;;;;;;6.75;2.10;;;;;;;-143.29;100.00;62188.47;4989324;28;20945;-91
2023/10/21 06:18:20;;;;;;;6.05;1.60;;;;;;;-143.29;100.00;62188.47;4991445;28;20030;-91
2023/10/21 06:20:49;;;;;;;3.50;1.23;;;;;;;-143.29;100.00;62188.47;4991368;28;20041;-92
2023/10/21 06:23:15;;;;;;;4.18;1.05;;;;;;;-143.29;100.00;62188.47;4991650;28;20031;-91
2023/10/21 06:25:40;;;;;;;2.67;0.90;;;;;;;-143.29;100.00;62188.47;4991058;28;20026;-90
2023/10/21 06:28:06;;;;;;;5.60;1.25;;;;;;;-143.29;100.00;62188.47;4991152;28;20022;-91
2023/10/21 06:30:34;;;;;;;5.85;1.30;;;;;;;-143.29;100.00;62188.47;4991193;28;20066;-91
2023/10/21 06:33:00;;;;;;;7.07;1.30;;;;;;;-143.29;100.00;62188.47;4974020;28;20077;-91
2023/10/21 06:35:25;;;;;;;7.55;1.20;;;;;;;-143.29;100.00;62188.47;4991361;28;20393;-91
2023/10/21 06:37:51;;;;;;;3.45;0.70;;;;;;;-143.29;100.00;62188.47;4990563;28;20034;-91
2023/10/21 06:40:16;;;;;;;5.43;1.02;;;;;;;-143.29;100.00;62188.47;4991801;28;20022;-90
2023/10/21 06:42:41;;;;;;;1.98;0.88;;;;;;;-143.29;100.00;62188.47;4991584;28;20114;-91
2023/10/21 06:45:08;;;;;;;2.90;0.85;;;;;;;-143.29;100.00;62188.47;4991479;28;20400;-91
2023/10/21 06:47:34;;;;;;;2.72;1.00;;;;;;;-143.29;100.00;62188.47;4973872;28;20116;-91
2023/10/21 06:50:00;;;;;;;6.97;1.75;;;;;;;-143.29;100.00;62188.47;4977107;28;20069;-90
2023/10/21 06:52:26;;;;;;;3.55;1.10;;;;;;;-143.29;100.00;62188.47;4994675;28;20065;-91
2023/10/21 06:54:53;;;;;;;3.92;0.90;;;;;;;-143.29;100.00;62188.47;4995146;28;20030;-91
2023/10/21 06:57:21;;;;;;;11.73;1.48;;;;;;;-143.29;100.00;62188.47;4992438;28;20038;-91
2023/10/21 06:59:47;;;;;;;7.70;1.27;;;;;;;-143.29;100.00;62188.47;4994759;28;20554;-91
2023/10/21 07:02:13;;;;;;;9.13;1.48;;;;;;;-143.29;100.00;62188.47;4994321;28;20027;-92
2023/10/21 07:04:38;;;;;;;5.78;1.10;;;;;;;-143.29;100.00;62188.47;4976921;28;20026;-91
2023/10/21 07:07:03;;;;;;;3.33;1.83;;;;;;;-143.29;100.00;62188.47;4993429;28;20038;-91
2023/10/21 07:09:32;;;;;;;5.03;1.75;;;;;;;-143.29;100.00;62188.47;4994386;28;20461;-91
2023/10/21 07:11:57;;;;;;;8.82;2.40;;;;;;;-143.29;100.00;62188.47;4976896;28;20037;-90
2023/10/21 07:14:23;;;;;;;11.52;3.10;;;;;;;-143.29;100.00;62188.47;4956593;28;1093366;-92
2023/10/21 07:16:48;;;;;;;7.13;2.40;;;;;;;-143.29;100.00;62188.47;4976824;28;20507;-92
2023/10/21 07:19:13;;;;;;;8.25;2.63;;;;;;;-143.29;100.00;62188.47;4977952;28;20033;-93
2023/10/21 07:21:40;;;;;;;7.13;3.10;;;;;;;-143.29;100.00;62188.47;4978110;28;20050;-94
2023/10/21 07:24:06;;;;;;;6.80;2.72;;;;;;;-143.29;100.00;62188.47;4977445;28;20511;-93
2023/10/21 07:26:32;;;;;;;9.07;3.78;;;;;;;-143.29;100.00;62188.47;4976527;28;20033;-91
2023/10/21 07:28:58;;;;;;;8.40;4.47;;;;;;;-143.29;100.00;62188.47;4977963;28;20014;-94
2023/10/21 07:31:23;;;;;;;8.65;4.80;;;;;;;-143.29;100.00;62188.47;4988435;28;20026;-94
2023/10/21 07:33:51;;;;;;;6.65;4.82;;;;;;;-143.29;100.00;62188.47;4993877;28;20125;-92
2023/10/21 07:36:16;;;;;;;5.07;4.25;;;;;;;-143.29;100.00;62188.47;4990664;28;20085;-93
2023/10/21 07:38:42;;;;;;;9.95;5.88;;;;;;;-143.29;100.00;62188.47;4990393;28;20442;-91
2023/10/21 07:41:12;;;;;;;6.38;5.68;;;;;;;-143.29;100.00;62188.47;4992822;28;20035;-93
2023/10/21 07:43:38;;;;;;;7.40;5.22;;;;;;;-143.29;100.00;62188.47;4992495;28;20052;-92
2023/10/21 07:46:03;;;;;;;7.38;5.85;;;;;;;-143.29;100.00;62188.47;4976008;28;20397;-92
2023/10/21 07:48:29;;;;;;;9.18;5.78;;;;;;;-143.29;100.00;62188.47;4978276;28;20025;-93
2023/10/21 07:50:55;;;;;;;7.32;5.25;;;;;;;-143.29;100.00;62188.47;4985570;28;20057;-93
2023/10/21 07:53:20;;;;;;;7.10;4.60;;;;;;;-143.29;100.00;62188.47;4974661;28;20034;-93
2023/10/21 07:55:48;;;;;;;14.63;4.80;;;;;;;-143.29;100.00;62188.47;4969870;28;20030;-93
2023/10/21 07:58:14;;;;;;;4.80;4.28;;;;;;;-143.29;100.00;62188.47;4987692;28;20030;-91
2023/10/21 08:00:39;;;;;;;6.82;4.65;;;;;;;-143.29;100.00;62188.47;4994710;28;20057;-90
2023/10/21 08:03:05;;;;;;;5.00;4.47;;;;;;;-143.29;100.00;62188.47;4994493;28;20533;-92
2023/10/21 08:05:30;;;;;;;4.80;3.70;;;;;;;-143.29;100.00;62188.47;4994724;28;20026;-91
2023/10/21 08:07:56;;;;;;;4.45;3.80;;;;;;;-143.29;100.00;62188.47;4963416;28;20069;-92
2023/10/21 08:10:22;;;;;;;6.80;4.20;;;;;;;-143.29;100.00;62188.47;4994644;28;20058;-93
2023/10/21 08:12:47;;;;;;;13.35;4.50;;;;;;;-143.29;100.00;62188.47;4977758;28;20560;-92
2023/10/21 08:15:13;;;;;;;7.10;4.30;;;;;;;-143.29;100.00;62188.47;4993716;28;20034;-94
2023/10/21 08:17:38;;;;;;;10.60;3.70;;;;;;;-143.29;100.00;62188.47;4976958;28;20026;-90
2023/10/21 08:20:04;;;;;;;5.28;4.07;;;;;;;-143.29;100.00;62188.47;4994487;28;20023;-94
2023/10/21 08:22:31;;;;;;;8.45;4.07;;;;;;;-143.29;100.00;62188.47;4976655;28;20031;-91
2023/10/21 08:24:56;;;;;;;5.88;4.22;;;;;;;-143.29;100.00;62188.47;4992303;28;20084;-89
2023/10/21 08:27:21;;;;;;;5.28;3.70;;;;;;;-143.29;100.00;62188.47;4990422;28;20650;-90
2023/10/21 08:29:48;;;;;;;5.93;3.75;;;;;;;-143.29;100.00;62188.47;4993987;28;20057;-89
2023/10/21 08:32:13;;;;;;;8.70;3.88;;;;;;;-143.29;100.00;62188.47;4976457;28;20022;-91
2023/10/21 08:34:38;;;;;;;4.93;2.97;;;;;;;-143.29;100.00;62188.47;4976349;28;20013;-90
2023/10/21 08:37:04;;;;;;;4.20;3.45;;;;;;;-143.29;100.00;62188.47;4993097;28;20164;-90
2023/10/21 08:39:30;;;;;;;5.20;3.67;;;;;;;-143.29;100.00;62188.47;4991139;28;20476;-92
2023/10/21 08:41:55;;;;;;;9.18;4.13;;;;;;;-143.29;100.00;62188.47;4992625;28;20029;-91
2023/10/21 08:44:22;;;;;;;5.80;4.05;;;;;;;-143.29;100.00;62188.47;4993724;28;20031;-92
2023/10/21 08:46:49;;;;;;;4.90;4.15;;;;;;;-143.29;100.00;62188.47;4993952;28;20057;-90
2023/10/21 08:49:18;;;;;;;5.63;3.65;;;;;;;-143.29;100.00;62188.47;4990684;28;20034;-92
2023/10/21 08:51:46;;;;;;;5.82;3.88;;;;;;;-143.29;100.00;62188.47;4993364;28;20027;-94
2023/10/21 08:54:12;;;;;;;4.07;3.10;;;;;;;-143.29;100.00;62188.47;4982353;28;20022;-94
2023/10/21 08:56:38;;;;;;;3.78;3.33;;;;;;;-143.29;100.00;62188.47;4990488;28;20100;-92
2023/10/21 08:59:03;;;;;;;5.28;2.92;;;;;;;-143.29;100.00;62188.47;4969339;28;20026;-91
2023/10/21 09:01:29;;;;;;;5.18;2.88;;;;;;;-143.29;100.00;62188.47;4989380;28;20397;-90
2023/10/21 09:03:56;;;;;;;2.72;2.45;;;;;;;-143.29;100.00;62188.47;4982104;28;20022;-91
2023/10/21 09:06:21;;;;;;;5.45;3.13;;;;;;;-143.29;100.00;62188.47;4991477;28;20122;-92
2023/10/21 09:08:48;;;;;;;4.30;2.70;;;;;;;-143.29;100.00;62188.47;4988726;28;20030;-92
2023/10/21 09:11:19;;;;;;;6.10;2.30;;;;;;;-143.29;100.00;62188.47;4972514;28;20026;-92
2023/10/21 09:13:45;;;;;;;2.65;2.40;;;;;;;-143.29;100.00;62188.47;4991807;28;20034;-91
2023/10/21 09:16:27;;;;;;;3.83;2.70;;;;;;;-143.29;100.00;62188.47;4991706;28;20034;-89
2023/10/21 09:19:10;;;;;;;2.97;2.63;;;;;;;-143.29;100.00;62188.47;4991465;28;20493;-90
2023/10/21 09:21:37;;;;;;;3.38;2.60;;;;;;;-143.29;100.00;62188.47;4989755;28;20034;-92
2023/10/21 09:24:04;;;;;;;3.08;2.72;;;;;;;-143.29;100.00;62188.47;4991379;28;20030;-89
2023/10/21 09:26:34;;;;;;;7.07;2.95;;;;;;;-143.29;100.00;62188.47;4989435;28;20425;-94
2023/10/21 09:29:08;;;;;;;3.53;2.47;;;;;;;-143.29;100.00;62188.47;4984531;28;20109;-92
2023/10/21 09:32:00;;;;;;;4.65;2.70;;;;;;;-143.29;100.00;62188.47;4976311;28;20093;-92
2023/10/21 09:34:33;;;;;;;3.33;2.55;;;;;;;-143.29;100.00;62188.47;4986084;28;20068;-92
2023/10/21 09:37:03;;;;;;;2.42;2.00;;;;;;;-143.29;100.00;62188.47;4993006;28;20404;-91
2023/10/21 09:39:33;;;;;;;2.83;2.35;;;;;;;-143.29;100.00;62188.47;4974707;28;20120;-96
2023/10/21 09:42:03;;;;;;;8.32;2.17;;;;;;;-143.29;100.00;62188.47;4990259;28;20025;-92
2023/10/21 09:44:34;;;;;;;2.58;2.00;;;;;;;-143.29;100.00;62188.47;4973048;28;20034;-91
2023/10/21 09:47:03;;;;;;;4.73;1.60;;;;;;;-143.29;100.00;62188.47;4974179;28;20057;-91
2023/10/21 09:49:35;;;;;;;2.08;1.60;;;;;;;-143.29;100.00;62188.47;4988860;28;20053;-94
2023/10/21 09:52:10;;;;;;;1.83;1.30;;;;;;;-143.29;100.00;62188.47;4975681;28;20435;-94
2023/10/21 09:54:48;;;;;;;2.35;1.63;;;;;;;-143.29;100.00;62188.47;4974445;28;20068;-93
2023/10/21 09:57:13;;;;;;;3.38;2.05;;;;;;;-143.29;100.00;62188.47;4975633;28;20030;-93
2023/10/21 09:59:40;;;;;;;1.83;1.65;;;;;;;-143.29;100.00;62188.47;4974084;28;20035;-93
2023/10/21 10:02:06;;;;;;;2.60;1.52;;;;;;;-143.29;100.00;62188.47;4993039;28;20023;-93
2023/10/21 10:04:34;;;;;;;2.17;1.52;;;;;;;-143.29;100.00;62188.47;4992512;28;20468;-93
2023/10/21 10:06:59;;;;;;;2.25;1.63;;;;;;;-143.29;100.00;62188.47;4990051;28;20022;-91
2023/10/21 10:09:29;;;;;;;1.80;1.60;;;;;;;-143.29;100.00;62188.47;4992105;28;20492;-91
2023/10/21 10:12:01;;;;;;;1.95;1.75;;;;;;;-143.29;100.00;62188.47;4967519;28;20050;-93
2023/10/21 10:14:28;;;;;;;;;;;;;;;-143.29;100.00;62188.47;4965189;28;20038;-94
2023/10/21 10:16:54;;;;;;;2.22;1.70;;;;;;;-143.29;100.00;62188.47;4991525;28;19918;-92
2023/10/21 10:19:55;;;;;;;2.67;1.98;;;;;;;-143.29;100.00;62188.47;4974468;28;20095;-91
2023/10/21 10:22:29;;;;;;;6.28;1.80;;;;;;;-143.29;100.00;62188.47;4914398;29;20035;-93
2023/10/21 10:24:56;;;;;;;4.72;2.40;;;;;;;-143.29;100.00;62188.47;4983566;28;20417;-92
2023/10/21 10:27:41;;;;;;;2.22;1.75;;;;;;;-143.29;100.00;62188.47;4987797;28;20027;-92
2023/10/21 10:30:19;;;;;;;1.92;1.40;;;;;;;-143.29;100.00;62188.47;4972918;28;20052;-92
2023/10/21 10:32:47;;;;;;;1.40;1.20;;;;;;;-143.29;100.00;62188.47;4992256;28;20125;-92
2023/10/21 10:35:29;;;;;;;1.83;1.25;;;;;;;-143.29;100.00;62188.47;4975164;28;20061;-92
2023/10/21 10:37:55;;;;;;;1.30;1.20;;;;;;;-143.29;100.00;62188.47;4974693;28;20034;-92
2023/10/21 10:40:35;;;;;;;1.60;1.23;;;;;;;-143.29;100.00;62188.47;4992087;28;20121;-92
2023/10/21 10:43:01;;;;;;;1.45;1.35;;;;;;;-143.29;100.00;62188.47;4974683;28;20061;-93
2023/10/21 10:45:26;;;;;;;3.42;1.30;;;;;;;-143.29;100.00;62188.47;4973675;28;20061;-93
2023/10/21 10:48:02;;;;;;;1.75;1.58;;;;;;;-143.29;100.00;62188.47;4993040;28;20431;-92
2023/10/21 10:50:29;;;;;;;2.15;1.52;;;;;;;-143.29;100.00;62188.47;4992742;28;20108;-96
2023/10/21 10:52:55;;;;;;;1.50;1.40;;;;;;;-143.29;100.00;62188.47;4975692;28;20468;-92
2023/10/21 10:55:21;;;;;;;2.28;1.05;;;;;;;-143.29;100.00;62188.47;4992521;28;20034;-91
2023/10/21 10:57:48;;;;;;;1.20;1.10;;;;;;;-143.29;100.00;62188.47;4983605;28;20068;-91
2023/10/21 11:00:20;;;;;;;1.80;1.33;;;;;;;-143.29;100.00;62188.47;4991670;28;20485;-94
2023/10/21 11:02:46;;;;;;;1.55;1.10;;;;;;;-143.29;100.00;62188.47;4975620;28;20030;-96
2023/10/21 11:05:17;;;;;;;4.13;1.50;;;;;;;-143.29;100.00;62188.47;4974610;28;20078;-91
2023/10/21 11:07:42;;;;;;;1.67;1.13;;;;;;;-143.29;100.00;62188.47;4992666;28;20034;-94